sensor_id;sensor_type;location;lat;lon;timestamp;pressure;altitude;pressure_sealevel;temperature;humidity
50250;BME280;36133;42.522;27.456;2022-08-23T00:01:29;100492.53;;;28.11;60.18
50250;BME280;36133;42.522;27.456;2022-08-23T00:03:58;100540.53;;;28.89;59.12
50250;BME280;36133;42.522;27.456;2022-08-23T00:06:25;100337.72;;;27.58;59.10
50250;BME280;36133;42.522;27.456;2022-08-23T00:08:51;100303.25;;;27.51;58.88
50250;BME280;36133;42.522;27.456;2022-08-23T00:11:25;100422.06;;;28.35;58.35
50250;BME280;36133;42.522;27.456;2022-08-23T00:13:51;100362.94;;;28.12;57.92
50250;BME280;36133;42.522;27.456;2022-08-23T00:16:16;100546.53;;;29.27;57.86
50250;BME280;36133;42.522;27.456;2022-08-23T00:18:42;100431.38;;;28.52;57.89
50250;BME280;36133;42.522;27.456;2022-08-23T00:21:08;100498.84;;;28.89;57.93
50250;BME280;36133;42.522;27.456;2022-08-23T00:23:33;100525.69;;;28.94;58.12
50250;BME280;36133;42.522;27.456;2022-08-23T00:26:02;100373.44;;;27.32;60.24
50250;BME280;36133;42.522;27.456;2022-08-23T00:28:28;100284.13;;;27.35;58.75
50250;BME280;36133;42.522;27.456;2022-08-23T00:30:55;100435.34;;;28.38;58.07
50250;BME280;36133;42.522;27.456;2022-08-23T00:33:22;100283.34;;;27.21;58.92
50250;BME280;36133;42.522;27.456;2022-08-23T00:35:48;100547.22;;;28.88;59.23
50250;BME280;36133;42.522;27.456;2022-08-23T00:38:13;100497.75;;;28.76;57.82
50250;BME280;36133;42.522;27.456;2022-08-23T00:40:43;100442.13;;;28.31;58.34
50250;BME280;36133;42.522;27.456;2022-08-23T00:43:11;100529.25;;;29.08;57.77
50250;BME280;36133;42.522;27.456;2022-08-23T00:49:03;100517.59;;;28.83;58.33
50250;BME280;36133;42.522;27.456;2022-08-23T00:51:51;100510.63;;;28.72;58.65
50250;BME280;36133;42.522;27.456;2022-08-23T00:54:23;100502.66;;;28.79;58.35
50250;BME280;36133;42.522;27.456;2022-08-23T00:56:53;100444.09;;;28.31;58.61
50250;BME280;36133;42.522;27.456;2022-08-23T00:59:19;100363.56;;;27.95;57.77
50250;BME280;36133;42.522;27.456;2022-08-23T01:01:46;100530.50;;;29.24;57.30
50250;BME280;36133;42.522;27.456;2022-08-23T01:04:12;100469.59;;;29.14;56.44
50250;BME280;36133;42.522;27.456;2022-08-23T01:06:45;100526.44;;;29.30;56.72
50250;BME280;36133;42.522;27.456;2022-08-23T01:09:17;100533.53;;;29.36;56.99
50250;BME280;36133;42.522;27.456;2022-08-23T01:14:58;100386.56;;;28.45;56.53
50250;BME280;36133;42.522;27.456;2022-08-23T01:17:23;100539.78;;;28.97;57.66
50250;BME280;36133;42.522;27.456;2022-08-23T01:19:55;100518.47;;;28.93;57.68
50250;BME280;36133;42.522;27.456;2022-08-23T01:22:30;100441.41;;;28.40;57.51
50250;BME280;36133;42.522;27.456;2022-08-23T01:25:00;100429.28;;;28.36;57.51
50250;BME280;36133;42.522;27.456;2022-08-23T01:27:27;100542.63;;;29.28;56.87
50250;BME280;36133;42.522;27.456;2022-08-23T01:29:53;100539.34;;;29.04;57.35
50250;BME280;36133;42.522;27.456;2022-08-23T01:32:18;100358.63;;;28.42;55.58
50250;BME280;36133;42.522;27.456;2022-08-23T01:34:44;100400.59;;;28.63;55.69
50250;BME280;36133;42.522;27.456;2022-08-23T01:37:10;100533.25;;;29.46;55.50
50250;BME280;36133;42.522;27.456;2022-08-23T01:39:36;100497.44;;;28.28;58.70
50250;BME280;36133;42.522;27.456;2022-08-23T01:42:03;100471.66;;;28.27;58.55
50250;BME280;36133;42.522;27.456;2022-08-23T01:44:29;100502.84;;;28.83;57.34
50250;BME280;36133;42.522;27.456;2022-08-23T01:46:54;100517.50;;;28.75;58.17
50250;BME280;36133;42.522;27.456;2022-08-23T01:49:20;100528.97;;;29.18;56.70
50250;BME280;36133;42.522;27.456;2022-08-23T01:51:45;100379.75;;;28.15;57.07
50250;BME280;36133;42.522;27.456;2022-08-23T01:54:11;100399.38;;;28.19;57.34
50250;BME280;36133;42.522;27.456;2022-08-23T01:56:38;100544.50;;;28.83;57.96
50250;BME280;36133;42.522;27.456;2022-08-23T01:59:06;100422.78;;;27.77;59.58
50250;BME280;36133;42.522;27.456;2022-08-23T02:01:32;100361.13;;;27.25;59.46
50250;BME280;36133;42.522;27.456;2022-08-23T02:03:58;100467.53;;;27.97;59.56
50250;BME280;36133;42.522;27.456;2022-08-23T02:06:24;100529.81;;;28.33;59.56
50250;BME280;36133;42.522;27.456;2022-08-23T02:08:49;100475.94;;;28.20;58.99
50250;BME280;36133;42.522;27.456;2022-08-23T02:11:35;100441.25;;;27.95;58.99
50250;BME280;36133;42.522;27.456;2022-08-23T02:14:06;100480.72;;;27.32;61.62
50250;BME280;36133;42.522;27.456;2022-08-23T02:16:42;100530.25;;;28.12;60.19
50250;BME280;36133;42.522;27.456;2022-08-23T02:19:11;100567.00;;;28.73;58.59
50250;BME280;36133;42.522;27.456;2022-08-23T02:21:39;100477.06;;;28.19;58.28
50250;BME280;36133;42.522;27.456;2022-08-23T02:24:08;100575.44;;;28.26;60.04
50250;BME280;36133;42.522;27.456;2022-08-23T02:26:36;100140.16;;;25.74;59.01
50250;BME280;36133;42.522;27.456;2022-08-23T02:29:02;100474.84;;;27.93;58.66
50250;BME280;36133;42.522;27.456;2022-08-23T02:31:28;100588.63;;;28.48;59.11
50250;BME280;36133;42.522;27.456;2022-08-23T02:33:53;100555.72;;;28.42;58.67
50250;BME280;36133;42.522;27.456;2022-08-23T02:36:19;100492.00;;;27.95;58.76
50250;BME280;36133;42.522;27.456;2022-08-23T02:38:45;100451.50;;;27.53;59.23
50250;BME280;36133;42.522;27.456;2022-08-23T02:41:10;100491.28;;;28.03;58.14
50250;BME280;36133;42.522;27.456;2022-08-23T02:43:36;100380.25;;;26.61;60.43
50250;BME280;36133;42.522;27.456;2022-08-23T02:46:03;100581.72;;;28.46;59.02
50250;BME280;36133;42.522;27.456;2022-08-23T02:48:33;100592.25;;;28.99;57.91
50250;BME280;36133;42.522;27.456;2022-08-23T02:51:01;100475.88;;;28.11;57.66
50250;BME280;36133;42.522;27.456;2022-08-23T02:53:28;100492.72;;;28.28;57.56
50250;BME280;36133;42.522;27.456;2022-08-23T02:55:55;100578.16;;;28.81;57.52
50250;BME280;36133;42.522;27.456;2022-08-23T02:58:21;100596.22;;;29.06;57.23
50250;BME280;36133;42.522;27.456;2022-08-23T03:00:47;100531.66;;;28.23;58.10
50250;BME280;36133;42.522;27.456;2022-08-23T03:03:13;100522.81;;;28.49;57.14
50250;BME280;36133;42.522;27.456;2022-08-23T03:05:38;100423.47;;;27.82;57.28
50250;BME280;36133;42.522;27.456;2022-08-23T03:08:04;100496.31;;;28.01;57.82
50250;BME280;36133;42.522;27.456;2022-08-23T03:10:30;100608.72;;;28.81;57.88
50250;BME280;36133;42.522;27.456;2022-08-23T03:12:55;100581.38;;;28.88;57.49
50250;BME280;36133;42.522;27.456;2022-08-23T03:15:21;100567.78;;;28.87;57.15
50250;BME280;36133;42.522;27.456;2022-08-23T03:17:47;100566.94;;;29.00;56.52
50250;BME280;36133;42.522;27.456;2022-08-23T03:20:13;100612.56;;;29.22;56.70
50250;BME280;36133;42.522;27.456;2022-08-23T03:22:39;100572.13;;;29.15;56.35
50250;BME280;36133;42.522;27.456;2022-08-23T03:25:05;100615.28;;;29.13;56.91
50250;BME280;36133;42.522;27.456;2022-08-23T03:27:31;100615.28;;;28.36;59.30
50250;BME280;36133;42.522;27.456;2022-08-23T03:29:57;100603.16;;;28.81;57.98
50250;BME280;36133;42.522;27.456;2022-08-23T03:32:22;100325.91;;;27.11;57.42
50250;BME280;36133;42.522;27.456;2022-08-23T03:34:48;100586.16;;;29.33;55.91
50250;BME280;36133;42.522;27.456;2022-08-23T03:37:13;100616.78;;;28.97;56.89
50250;BME280;36133;42.522;27.456;2022-08-23T03:39:39;100573.91;;;29.34;55.54
50250;BME280;36133;42.522;27.456;2022-08-23T03:42:05;100638.63;;;29.70;55.60
50250;BME280;36133;42.522;27.456;2022-08-23T03:44:31;100583.59;;;29.59;55.24
50250;BME280;36133;42.522;27.456;2022-08-23T03:46:57;100309.63;;;28.01;55.03
50250;BME280;36133;42.522;27.456;2022-08-23T03:49:22;100643.22;;;29.97;55.07
50250;BME280;36133;42.522;27.456;2022-08-23T03:51:48;100633.91;;;30.02;54.80
50250;BME280;36133;42.522;27.456;2022-08-23T03:54:14;100639.53;;;29.43;56.26
50250;BME280;36133;42.522;27.456;2022-08-23T03:56:51;100363.56;;;27.95;55.86
50250;BME280;36133;42.522;27.456;2022-08-23T03:59:17;100658.44;;;30.22;54.84
50250;BME280;36133;42.522;27.456;2022-08-23T04:01:43;100617.59;;;28.97;56.60
50250;BME280;36133;42.522;27.456;2022-08-23T04:04:08;100515.22;;;27.99;57.68
50250;BME280;36133;42.522;27.456;2022-08-23T04:06:35;100545.16;;;29.16;55.18
50250;BME280;36133;42.522;27.456;2022-08-23T04:09:00;100611.66;;;29.80;55.25
50250;BME280;36133;42.522;27.456;2022-08-23T04:11:26;100437.31;;;28.96;54.17
50250;BME280;36133;42.522;27.456;2022-08-23T04:13:52;100495.69;;;29.04;54.51
50250;BME280;36133;42.522;27.456;2022-08-23T04:16:17;100498.22;;;29.14;54.49
50250;BME280;36133;42.522;27.456;2022-08-23T04:18:43;100617.19;;;29.93;54.34
50250;BME280;36133;42.522;27.456;2022-08-23T04:21:13;100627.03;;;29.77;54.83
50250;BME280;36133;42.522;27.456;2022-08-23T04:23:40;100505.06;;;29.62;53.70
50250;BME280;36133;42.522;27.456;2022-08-23T04:26:08;100452.06;;;29.67;52.39
50250;BME280;36133;42.522;27.456;2022-08-23T04:28:34;100481.22;;;29.78;52.42
50250;BME280;36133;42.522;27.456;2022-08-23T04:31:00;100493.97;;;30.10;52.39
50250;BME280;36133;42.522;27.456;2022-08-23T04:33:27;100655.44;;;31.15;51.89
50250;BME280;36133;42.522;27.456;2022-08-23T04:35:56;100577.06;;;31.17;50.80
50250;BME280;36133;42.522;27.456;2022-08-23T04:38:22;100615.75;;;31.53;50.44
50250;BME280;36133;42.522;27.456;2022-08-23T04:40:47;100552.75;;;30.74;51.08
50250;BME280;36133;42.522;27.456;2022-08-23T04:43:31;100656.78;;;31.53;51.24
50250;BME280;36133;42.522;27.456;2022-08-23T04:45:57;100460.47;;;30.32;50.86
50250;BME280;36133;42.522;27.456;2022-08-23T04:48:22;100644.28;;;31.67;50.89
50250;BME280;36133;42.522;27.456;2022-08-23T04:50:48;100661.06;;;31.50;51.12
50250;BME280;36133;42.522;27.456;2022-08-23T04:53:14;100594.94;;;31.16;51.15
50250;BME280;36133;42.522;27.456;2022-08-23T04:55:39;100609.97;;;30.89;51.66
50250;BME280;36133;42.522;27.456;2022-08-23T04:58:06;100641.84;;;31.23;51.17
50250;BME280;36133;42.522;27.456;2022-08-23T05:00:32;100516.56;;;30.66;50.81
50250;BME280;36133;42.522;27.456;2022-08-23T05:02:58;100469.59;;;30.07;52.00
50250;BME280;36133;42.522;27.456;2022-08-23T05:05:23;100641.66;;;31.02;51.81
50250;BME280;36133;42.522;27.456;2022-08-23T05:07:49;100603.34;;;30.59;52.30
50250;BME280;36133;42.522;27.456;2022-08-23T05:10:15;100684.47;;;31.14;52.11
50250;BME280;36133;42.522;27.456;2022-08-23T05:12:42;100586.41;;;31.04;51.85
50250;BME280;36133;42.522;27.456;2022-08-23T05:15:08;100637.88;;;31.84;49.99
50250;BME280;36133;42.522;27.456;2022-08-23T05:17:34;100653.81;;;31.84;50.23
50250;BME280;36133;42.522;27.456;2022-08-23T05:20:01;100652.63;;;32.02;49.95
50250;BME280;36133;42.522;27.456;2022-08-23T05:22:26;100648.41;;;31.78;50.07
50250;BME280;36133;42.522;27.456;2022-08-23T05:24:53;100649.38;;;31.65;50.40
50250;BME280;36133;42.522;27.456;2022-08-23T05:27:18;100691.53;;;32.07;50.23
50250;BME280;36133;42.522;27.456;2022-08-23T05:29:44;100652.63;;;32.78;48.24
50250;BME280;36133;42.522;27.456;2022-08-23T05:32:10;100684.13;;;33.17;47.12
50250;BME280;36133;42.522;27.456;2022-08-23T05:34:36;100663.41;;;33.39;47.11
50250;BME280;36133;42.522;27.456;2022-08-23T05:37:01;100653.91;;;33.52;46.62
50250;BME280;36133;42.522;27.456;2022-08-23T05:39:27;100555.31;;;32.51;47.17
50250;BME280;36133;42.522;27.456;2022-08-23T05:41:53;100682.53;;;33.37;46.57
50250;BME280;36133;42.522;27.456;2022-08-23T05:44:18;100684.59;;;34.15;45.23
50250;BME280;36133;42.522;27.456;2022-08-23T05:46:44;100483.31;;;33.43;44.02
50250;BME280;36133;42.522;27.456;2022-08-23T05:49:10;100527.38;;;33.92;43.62
50250;BME280;36133;42.522;27.456;2022-08-23T05:51:36;100551.75;;;33.13;45.38
50250;BME280;36133;42.522;27.456;2022-08-23T05:54:06;100268.09;;;30.72;47.02
50250;BME280;36133;42.522;27.456;2022-08-23T05:56:35;100606.50;;;33.68;45.41
50250;BME280;36133;42.522;27.456;2022-08-23T05:59:04;100701.31;;;34.35;45.51
50250;BME280;36133;42.522;27.456;2022-08-23T06:01:31;100664.75;;;34.07;45.41
50250;BME280;36133;42.522;27.456;2022-08-23T06:03:58;100689.09;;;34.40;45.11
50250;BME280;36133;42.522;27.456;2022-08-23T06:06:25;100646.44;;;34.22;44.66
50250;BME280;36133;42.522;27.456;2022-08-23T06:08:51;100671.25;;;34.93;43.92
50250;BME280;36133;42.522;27.456;2022-08-23T06:11:20;100549.44;;;34.66;43.21
50250;BME280;36133;42.522;27.456;2022-08-23T06:13:49;100613.56;;;35.20;42.27
50250;BME280;36133;42.522;27.456;2022-08-23T06:16:17;100703.72;;;34.58;44.37
50250;BME280;36133;42.522;27.456;2022-08-23T06:18:46;100570.78;;;34.71;42.77
50250;BME280;36133;42.522;27.456;2022-08-23T06:21:16;100498.81;;;34.11;42.83
50250;BME280;36133;42.522;27.456;2022-08-23T06:23:43;100551.19;;;35.11;41.92
50250;BME280;36133;42.522;27.456;2022-08-23T06:26:36;100683.03;;;36.07;41.00
50250;BME280;36133;42.522;27.456;2022-08-23T06:29:06;100547.28;;;34.76;41.87
50250;BME280;36133;42.522;27.456;2022-08-23T06:31:32;100293.56;;;32.30;43.44
50250;BME280;36133;42.522;27.456;2022-08-23T06:34:16;100296.13;;;33.50;41.29
50250;BME280;36133;42.522;27.456;2022-08-23T06:36:43;100363.78;;;34.57;40.07
50250;BME280;36133;42.522;27.456;2022-08-23T06:39:09;100577.84;;;36.05;40.04
50250;BME280;36133;42.522;27.456;2022-08-23T06:41:40;100706.16;;;36.01;41.06
50250;BME280;36133;42.522;27.456;2022-08-23T06:44:06;100492.47;;;35.18;40.78
50250;BME280;36133;42.522;27.456;2022-08-23T06:46:32;100352.94;;;34.03;40.84
50250;BME280;36133;42.522;27.456;2022-08-23T06:49:01;100703.59;;;36.39;41.27
50250;BME280;36133;42.522;27.456;2022-08-23T06:51:39;100484.91;;;33.90;42.99
50250;BME280;36133;42.522;27.456;2022-08-23T06:54:09;100412.63;;;33.10;43.15
50250;BME280;36133;42.522;27.456;2022-08-23T06:56:36;100535.13;;;32.96;45.55
50250;BME280;36133;42.522;27.456;2022-08-23T06:59:03;100500.31;;;31.84;47.47
50250;BME280;36133;42.522;27.456;2022-08-23T07:01:57;100486.84;;;32.65;45.56
50250;BME280;36133;42.522;27.456;2022-08-23T07:04:37;100364.09;;;32.93;44.07
50250;BME280;36133;42.522;27.456;2022-08-23T07:07:04;100506.69;;;33.60;44.53
50250;BME280;36133;42.522;27.456;2022-08-23T07:09:31;100483.22;;;33.19;44.61
50250;BME280;36133;42.522;27.456;2022-08-23T07:11:57;100545.78;;;33.68;44.85
50250;BME280;36133;42.522;27.456;2022-08-23T07:14:24;100608.19;;;34.38;43.82
50250;BME280;36133;42.522;27.456;2022-08-23T07:16:56;100475.34;;;33.91;43.29
50250;BME280;36133;42.522;27.456;2022-08-23T07:19:24;100566.53;;;33.79;44.75
50250;BME280;36133;42.522;27.456;2022-08-23T07:21:55;100314.75;;;31.90;45.85
50250;BME280;36133;42.522;27.456;2022-08-23T07:24:22;100602.53;;;34.14;45.22
50250;BME280;36133;42.522;27.456;2022-08-23T07:26:48;100564.78;;;33.09;46.39
50250;BME280;36133;42.522;27.456;2022-08-23T07:29:15;100437.78;;;32.35;46.73
50250;BME280;36133;42.522;27.456;2022-08-23T07:31:48;100602.94;;;34.49;44.26
50250;BME280;36133;42.522;27.456;2022-08-23T07:34:17;100607.66;;;33.67;45.81
50250;BME280;36133;42.522;27.456;2022-08-23T07:36:44;100377.97;;;32.36;45.09
50250;BME280;36133;42.522;27.456;2022-08-23T07:39:11;100349.69;;;32.38;44.93
50250;BME280;36133;42.522;27.456;2022-08-23T07:41:38;100583.72;;;34.76;43.18
50250;BME280;36133;42.522;27.456;2022-08-23T07:44:07;100571.13;;;34.94;42.45
50250;BME280;36133;42.522;27.456;2022-08-23T07:46:34;100354.53;;;33.40;42.55
50250;BME280;36133;42.522;27.456;2022-08-23T07:49:01;100377.94;;;34.08;41.98
50250;BME280;36133;42.522;27.456;2022-08-23T07:51:29;100311.41;;;32.71;43.53
50250;BME280;36133;42.522;27.456;2022-08-23T07:53:55;100635.16;;;34.92;42.68
50250;BME280;36133;42.522;27.456;2022-08-23T07:56:24;100734.28;;;35.48;43.46
50250;BME280;36133;42.522;27.456;2022-08-23T07:58:50;100568.28;;;35.06;42.26
50250;BME280;36133;42.522;27.456;2022-08-23T08:01:19;100403.16;;;33.60;42.81
50250;BME280;36133;42.522;27.456;2022-08-23T08:03:50;100510.19;;;34.66;41.97
50250;BME280;36133;42.522;27.456;2022-08-23T08:06:22;100373.75;;;33.90;42.09
50250;BME280;36133;42.522;27.456;2022-08-23T08:08:52;100497.00;;;35.23;41.00
50250;BME280;36133;42.522;27.456;2022-08-23T08:11:28;100321.97;;;33.72;41.84
50250;BME280;36133;42.522;27.456;2022-08-23T08:13:54;100727.97;;;36.99;40.45
50250;BME280;36133;42.522;27.456;2022-08-23T08:16:23;100636.31;;;35.31;42.28
50250;BME280;36133;42.522;27.456;2022-08-23T08:18:51;100499.44;;;35.84;39.89
50250;BME280;36133;42.522;27.456;2022-08-23T08:21:17;100509.50;;;35.69;40.48
50250;BME280;36133;42.522;27.456;2022-08-23T08:23:46;100382.22;;;34.18;41.60
50250;BME280;36133;42.522;27.456;2022-08-23T08:26:15;100482.81;;;35.91;39.76
50250;BME280;36133;42.522;27.456;2022-08-23T08:28:44;100340.94;;;34.03;41.43
50250;BME280;36133;42.522;27.456;2022-08-23T08:31:10;100595.41;;;36.02;41.00
50250;BME280;36133;42.522;27.456;2022-08-23T08:33:36;100442.69;;;34.07;42.54
50250;BME280;36133;42.522;27.456;2022-08-23T08:36:03;100338.88;;;33.14;43.39
50250;BME280;36133;42.522;27.456;2022-08-23T08:38:29;100314.28;;;32.96;43.80
50250;BME280;36133;42.522;27.456;2022-08-23T08:41:06;100706.22;;;35.36;43.93
50250;BME280;36133;42.522;27.456;2022-08-23T08:43:40;100646.16;;;33.58;46.85
50250;BME280;36133;42.522;27.456;2022-08-23T08:46:22;100644.19;;;35.26;45.91
50250;BME280;36133;42.522;27.456;2022-08-23T08:48:56;100326.06;;;32.14;48.65
50250;BME280;36133;42.522;27.456;2022-08-23T08:51:47;100642.63;;;34.63;48.73
50250;BME280;36133;42.522;27.456;2022-08-23T08:54:17;100587.81;;;36.02;43.49
50250;BME280;36133;42.522;27.456;2022-08-23T08:56:49;100350.47;;;35.61;43.31
50250;BME280;36133;42.522;27.456;2022-08-23T08:59:26;100309.97;;;34.52;41.81
50250;BME280;36133;42.522;27.456;2022-08-23T09:02:00;100594.63;;;36.84;41.85
50250;BME280;36133;42.522;27.456;2022-08-23T09:04:36;100297.16;;;34.82;42.25
50250;BME280;36133;42.522;27.456;2022-08-23T09:17:57;100587.16;;;37.11;37.90
50250;BME280;36133;42.522;27.456;2022-08-23T09:20:31;100529.81;;;37.58;37.64
50250;BME280;36133;42.522;27.456;2022-08-23T09:23:08;100363.16;;;34.24;41.58
50250;BME280;36133;42.522;27.456;2022-08-23T09:26:17;100334.16;;;36.37;37.97
50250;BME280;36133;42.522;27.456;2022-08-23T09:28:51;100413.66;;;36.22;38.77
50250;BME280;36133;42.522;27.456;2022-08-23T09:31:37;100621.56;;;36.69;40.46
50250;BME280;36133;42.522;27.456;2022-08-23T09:34:03;100402.44;;;35.23;40.94
50250;BME280;36133;42.522;27.456;2022-08-23T09:36:50;100627.25;;;36.37;41.72
50250;BME280;36133;42.522;27.456;2022-08-23T09:39:30;100502.22;;;36.66;40.03
50250;BME280;36133;42.522;27.456;2022-08-23T09:41:56;100746.41;;;38.47;40.09
50250;BME280;36133;42.522;27.456;2022-08-23T09:44:40;100494.88;;;36.27;40.20
50250;BME280;36133;42.522;27.456;2022-08-23T09:47:15;100632.84;;;35.62;42.72
50250;BME280;36133;42.522;27.456;2022-08-23T09:49:45;100508.25;;;36.84;39.85
50250;BME280;36133;42.522;27.456;2022-08-23T09:54:57;100581.88;;;40.37;34.10
50250;BME280;36133;42.522;27.456;2022-08-23T09:57:28;100613.28;;;38.61;36.54
50250;BME280;36133;42.522;27.456;2022-08-23T10:02:42;100762.72;;;40.23;34.27
50250;BME280;36133;42.522;27.456;2022-08-23T10:07:57;100613.81;;;36.97;37.08
50250;BME280;36133;42.522;27.456;2022-08-23T10:10:37;100644.34;;;36.64;38.74
50250;BME280;36133;42.522;27.456;2022-08-23T10:13:08;100404.78;;;36.35;36.31
50250;BME280;36133;42.522;27.456;2022-08-23T10:15:58;100751.94;;;40.36;33.71
50250;BME280;36133;42.522;27.456;2022-08-23T10:24:38;100747.00;;;40.70;33.78
50250;BME280;36133;42.522;27.456;2022-08-23T10:36:07;100628.41;;;39.32;34.82
50250;BME280;36133;42.522;27.456;2022-08-23T10:39:00;100746.50;;;39.00;37.14
50250;BME280;36133;42.522;27.456;2022-08-23T10:49:54;100389.94;;;35.68;39.97
50250;BME280;36133;42.522;27.456;2022-08-23T10:52:38;100304.28;;;34.36;41.94
50250;BME280;36133;42.522;27.456;2022-08-23T10:55:14;100346.63;;;34.19;43.06
50250;BME280;36133;42.522;27.456;2022-08-23T10:58:02;100385.88;;;35.66;41.13
50250;BME280;36133;42.522;27.456;2022-08-23T11:00:31;100412.00;;;36.56;40.47
50250;BME280;36133;42.522;27.456;2022-08-23T11:03:29;100730.22;;;40.91;36.57
50250;BME280;36133;42.522;27.456;2022-08-23T11:12:17;100741.28;;;37.72;41.26
50250;BME280;36133;42.522;27.456;2022-08-23T11:15:18;100588.06;;;36.29;42.65
50250;BME280;36133;42.522;27.456;2022-08-23T11:23:52;100354.75;;;36.83;36.90
50250;BME280;36133;42.522;27.456;2022-08-23T11:42:52;100329.53;;;36.29;40.00
50250;BME280;36133;42.522;27.456;2022-08-23T11:51:30;100480.16;;;36.49;41.22
50250;BME280;36133;42.522;27.456;2022-08-23T11:54:25;100726.72;;;39.53;38.40
50250;BME280;36133;42.522;27.456;2022-08-23T11:57:12;100718.19;;;38.93;39.71
50250;BME280;36133;42.522;27.456;2022-08-23T12:02:39;100719.84;;;38.97;39.94
50250;BME280;36133;42.522;27.456;2022-08-23T12:16:10;100724.59;;;38.44;41.56
50250;BME280;36133;42.522;27.456;2022-08-23T12:35:43;100719.13;;;37.16;44.47
50250;BME280;36133;42.522;27.456;2022-08-23T12:38:38;100614.91;;;38.12;40.96
50250;BME280;36133;42.522;27.456;2022-08-23T12:44:07;100713.13;;;39.06;40.54
50250;BME280;36133;42.522;27.456;2022-08-23T12:46:42;100277.72;;;35.37;41.60
50250;BME280;36133;42.522;27.456;2022-08-23T12:49:21;100526.97;;;36.42;42.55
50250;BME280;36133;42.522;27.456;2022-08-23T12:52:12;100704.28;;;36.68;44.68
50250;BME280;36133;42.522;27.456;2022-08-23T12:54:42;100640.53;;;37.07;43.73
50250;BME280;36133;42.522;27.456;2022-08-23T12:57:38;100478.88;;;35.96;43.29
50250;BME280;36133;42.522;27.456;2022-08-23T13:02:41;100686.88;;;37.29;43.37
50250;BME280;36133;42.522;27.456;2022-08-23T13:05:15;100667.09;;;37.64;42.65
50250;BME280;36133;42.522;27.456;2022-08-23T13:07:44;100566.28;;;36.92;41.99
50250;BME280;36133;42.522;27.456;2022-08-23T13:10:10;100290.47;;;34.55;43.23
50250;BME280;36133;42.522;27.456;2022-08-23T13:12:36;100682.75;;;38.04;42.04
50250;BME280;36133;42.522;27.456;2022-08-23T13:15:03;100291.00;;;35.56;41.36
50250;BME280;36133;42.522;27.456;2022-08-23T13:17:35;100463.63;;;37.44;40.55
50250;BME280;36133;42.522;27.456;2022-08-23T13:20:20;100561.16;;;39.08;39.09
50250;BME280;36133;42.522;27.456;2022-08-23T13:22:58;100335.19;;;36.90;40.34
50250;BME280;36133;42.522;27.456;2022-08-23T13:25:34;100349.78;;;35.99;42.35
50250;BME280;36133;42.522;27.456;2022-08-23T13:28:07;100298.28;;;34.22;45.99
50250;BME280;36133;42.522;27.456;2022-08-23T13:30:58;100560.53;;;35.43;45.88
50250;BME280;36133;42.522;27.456;2022-08-23T13:33:24;100289.41;;;35.23;43.36
50250;BME280;36133;42.522;27.456;2022-08-23T13:36:08;100400.81;;;35.22;44.46
50250;BME280;36133;42.522;27.456;2022-08-23T13:38:37;100586.69;;;36.54;44.30
50250;BME280;36133;42.522;27.456;2022-08-23T13:41:10;100559.63;;;34.47;48.54
50250;BME280;36133;42.522;27.456;2022-08-23T13:43:47;100554.16;;;35.74;46.05
50250;BME280;36133;42.522;27.456;2022-08-23T13:46:23;100695.41;;;36.66;45.94
50250;BME280;36133;42.522;27.456;2022-08-23T13:48:57;100243.75;;;32.32;49.00
50250;BME280;36133;42.522;27.456;2022-08-23T13:54:29;100697.94;;;32.92;55.84
50250;BME280;36133;42.522;27.456;2022-08-23T13:56:58;100620.31;;;32.39;55.95
50250;BME280;36133;42.522;27.456;2022-08-23T13:59:40;100691.81;;;33.49;54.41
50250;BME280;36133;42.522;27.456;2022-08-23T14:02:09;100583.38;;;33.26;52.97
50250;BME280;36133;42.522;27.456;2022-08-23T14:04:40;100698.31;;;33.12;54.61
50250;BME280;36133;42.522;27.456;2022-08-23T14:07:06;100263.53;;;31.06;53.75
50250;BME280;36133;42.522;27.456;2022-08-23T14:09:33;100192.06;;;31.72;50.54
50250;BME280;36133;42.522;27.456;2022-08-23T14:12:02;100507.88;;;33.71;49.43
50250;BME280;36133;42.522;27.456;2022-08-23T14:14:30;100311.31;;;31.63;50.90
50250;BME280;36133;42.522;27.456;2022-08-23T14:17:00;100415.28;;;33.18;47.99
50250;BME280;36133;42.522;27.456;2022-08-23T14:19:26;100343.56;;;32.23;48.76
50250;BME280;36133;42.522;27.456;2022-08-23T14:21:52;100271.25;;;32.43;47.85
50250;BME280;36133;42.522;27.456;2022-08-23T14:24:18;100442.00;;;33.98;46.48
50250;BME280;36133;42.522;27.456;2022-08-23T14:26:44;100311.63;;;32.12;48.80
50250;BME280;36133;42.522;27.456;2022-08-23T14:29:10;100701.59;;;35.16;47.80
50250;BME280;36133;42.522;27.456;2022-08-23T14:31:38;100415.06;;;32.16;51.74
50250;BME280;36133;42.522;27.456;2022-08-23T14:34:11;100535.09;;;31.86;54.52
50250;BME280;36133;42.522;27.456;2022-08-23T14:36:37;100375.59;;;31.37;54.29
50250;BME280;36133;42.522;27.456;2022-08-23T14:39:03;100435.88;;;31.04;56.89
50250;BME280;36133;42.522;27.456;2022-08-23T14:41:29;100455.13;;;31.90;56.26
50250;BME280;36133;42.522;27.456;2022-08-23T14:43:56;100439.44;;;31.13;58.37
50250;BME280;36133;42.522;27.456;2022-08-23T14:46:28;100585.47;;;31.98;58.40
50250;BME280;36133;42.522;27.456;2022-08-23T14:49:04;100570.50;;;31.30;60.52
50250;BME280;36133;42.522;27.456;2022-08-23T14:51:32;100236.25;;;29.66;59.15
50250;BME280;36133;42.522;27.456;2022-08-23T14:54:01;100564.22;;;31.59;59.17
50250;BME280;36133;42.522;27.456;2022-08-23T14:56:28;100305.81;;;30.70;57.22
50250;BME280;36133;42.522;27.456;2022-08-23T14:58:54;100629.50;;;31.84;58.92